ADDS METAR Data INFO
IDs: Format: Raw Decoded Include TAF

Data at: 0924 UTC 13 Dec 2017

KORG 130915Z AUTO 00000KT 10SM CLR 00/00 A3021 RMK AO2 T00000000
KORG 130855Z AUTO 00000KT 10SM CLR 00/00 A3022 RMK AO2 T00000000
KORG 130835Z AUTO 00000KT 10SM CLR 00/00 A3021 RMK AO2 T00010001
KORG 130820Z AUTO 00000KT 10SM CLR 01/01 A3021 RMK AO2 T00060006
KORG 130755Z AUTO 00000KT 10SM CLR 00/00 A3022 RMK AO2 T00040004
KORG 130735Z AUTO 00000KT 10SM CLR 00/00 A3021 RMK AO2 T00030003
KORG 130715Z AUTO 00000KT 10SM CLR 01/01 A3022 RMK AO2 T00080008
KORG 130655Z AUTO 30003KT 10SM CLR 01/01 A3022 RMK AO2 T00130011
KORG 130635Z AUTO 00000KT 10SM CLR 02/01 A3022 RMK AO2 T00150012
KORG 130615Z AUTO 00000KT 10SM CLR 02/01 A3023 RMK AO2 T00200012
KORG 130555Z AUTO 00000KT 10SM CLR 03/02 A3024 RMK AO2 T00270019 10119 20027 401720027
KORG 130535Z AUTO 00000KT 10SM CLR 04/02 A3024 RMK AO2 T00360016
KORG 130515Z AUTO 00000KT 10SM CLR 06/01 A3024 RMK AO2 T00640005
KORG 130455Z AUTO 00000KT 10SM CLR 06/01 A3024 RMK AO2 T00630009
KORG 130435Z AUTO 34003KT 10SM CLR 06/01 A3024 RMK AO2 T00640012
KORG 130420Z AUTO 00000KT 10SM CLR 07/01 A3024 RMK AO2 T00660010
KORG 130355Z AUTO 35003KT 10SM CLR 07/01 A3024 RMK AO2 T00670014
KORG 130335Z AUTO 31004KT 10SM CLR 06/01 A3024 RMK AO2 T00610014
KORG 130315Z AUTO 32003KT 10SM CLR 04/03 A3024 RMK AO2 T00350029
KORG 130255Z AUTO 00000KT 10SM CLR 03/03 A3024 RMK AO2 T00330025
KORG 130235Z AUTO 00000KT 10SM CLR 04/03 A3024 RMK AO2 T00420030
KORG 130215Z AUTO 00000KT 10SM CLR 04/03 A3024 RMK AO2 T00400030
KORG 130155Z AUTO 00000KT 10SM CLR 05/03 A3024 RMK AO2 T00510027
KORG 130115Z AUTO 00000KT 10SM CLR 06/03 A3024 RMK AO2 T00610025
KORG 130055Z AUTO 00000KT 10SM CLR 11/01 A3024 RMK AO2 T01070010
KORG 130035Z AUTO 34004KT 10SM CLR 11/01 A3024 RMK AO2 T01060011
KORG 130015Z AUTO 31003KT 10SM CLR 10/02 A3024 RMK AO2 T00990017
KORG 122355Z AUTO 00000KT 10SM CLR 12/01 A3024 RMK AO2 T01200009 10172 20120
KORG 122335Z AUTO 35003KT 10SM CLR 13/01 A3023 RMK AO2 T01280008
KORG 122315Z AUTO 33003KT 10SM CLR 14/00 A3023 RMK AO2 T01380003
KORG 122255Z AUTO 35003KT 10SM CLR 15/00 A3022 RMK AO2 T01480001
KORG 122235Z AUTO 34006KT 10SM CLR 16/M01 A3022 RMK AO2 T01551006
KORG 122215Z AUTO 35008KT 10SM CLR 16/M01 A3022 RMK AO2 T01581014
KORG 122155Z AUTO 33007KT 10SM CLR 16/M01 A3022 RMK AO2 T01621007
KORG 122135Z AUTO 36007KT 10SM CLR 17/M01 A3022 RMK AO2 T01671013
KORG 122115Z AUTO 35007KT 300V010 10SM CLR 17/M01 A3021 RMK AO2 T01671013
KORG 122055Z AUTO 32008KT 10SM CLR 17/00 A3022 RMK AO2 T01701001
KORG 122035Z AUTO 01008KT 10SM CLR 17/00 A3021 RMK AO2 T01701002
KORG 122015Z AUTO 35007KT 10SM CLR 17/00 A3022 RMK AO2 T01710001
KORG 121955Z AUTO 01008KT 10SM CLR 17/00 A3022 RMK AO2 T01721001
KORG 121935Z AUTO 34007KT 10SM CLR 17/01 A3022 RMK AO2 T01700006
KORG 121915Z AUTO 32006KT 10SM CLR 17/01 A3023 RMK AO2 T01690008
KORG 121855Z AUTO 35009G14KT 10SM CLR 17/01 A3024 RMK AO2 T01650009
KORG 121835Z AUTO 01008G16KT 10SM CLR 16/01 A3025 RMK AO2 T01620007
KORG 121815Z AUTO 02008G16KT 10SM CLR 16/01 A3026 RMK AO2 T01630010
KORG 121755Z AUTO 35010G14KT 10SM CLR 16/01 A3028 RMK AO2 T01580011 10159 20090
KORG 121735Z AUTO 35009G15KT 10SM CLR 16/02 A3029 RMK AO2 T01550015
KORG 121715Z AUTO 36010G14KT 10SM CLR 15/02 A3029 RMK AO2 T01540015
KORG 121655Z AUTO 02008G14KT 10SM CLR 15/02 A3030 RMK AO2 T01500015
KORG 121635Z AUTO 36011G17KT 10SM CLR 14/02 A3030 RMK AO2 T01440016
KORG 121615Z AUTO 36009G15KT 10SM CLR 14/02 A3031 RMK AO2 T01420017
KORG 121555Z AUTO 36009G14KT 10SM CLR 14/02 A3030 RMK AO2 T01370017
KORG 121535Z AUTO 36010KT 10SM CLR 13/02 A3030 RMK AO2 T01330019
KORG 121515Z AUTO 01007KT 330V030 10SM CLR 12/02 A3030 RMK AO2 T01240022
KORG 121455Z AUTO 36008KT 10SM CLR 12/02 A3029 RMK AO2 T01150021
KORG 121435Z AUTO 35007KT 10SM CLR 11/02 A3029 RMK AO2 T01080019
KORG 121415Z AUTO 35007KT 10SM CLR 10/02 A3028 RMK AO2 T01030021
KORG 121355Z AUTO 35004KT 10SM CLR 10/02 A3028 RMK AO2 T00970021
KORG 121335Z AUTO 35005KT 10SM CLR 10/02 A3027 RMK AO2 T00950017
KORG 121315Z AUTO 35006KT 10SM CLR 09/02 A3027 RMK AO2 T00910020
KORG 121255Z AUTO 34005KT 10SM CLR 09/02 A3025 RMK AO2 T00900022
KORG 121235Z AUTO 34003KT 10SM CLR 09/03 A3024 RMK AO2 T00930025
KORG 121215Z AUTO 35006KT 10SM CLR 10/03 A3024 RMK AO2 T00950029
KORG 121155Z AUTO 35006KT 10SM CLR 10/03 A3023 RMK AO2 T00950033 10120 20095
KORG 121135Z AUTO 35007KT 10SM CLR 10/04 A3022 RMK AO2 T01000035
KORG 121115Z AUTO 35007KT 10SM CLR 10/04 A3021 RMK AO2 T01010040
KORG 121055Z AUTO 35006KT 10SM CLR 10/04 A3020 RMK AO2 T01010043
KORG 121035Z AUTO 34005KT 10SM CLR 10/05 A3020 RMK AO2 T01020050
KORG 121015Z AUTO 31003KT 10SM CLR 11/05 A3019 RMK AO2 T01060053
KORG 120955Z AUTO 34005KT 10SM CLR 11/06 A3019 RMK AO2 T01060060
KORG 120935Z AUTO 29004KT 10SM CLR 11/07 A3018 RMK AO2 T01080065
KORG 120915Z AUTO 29004KT 10SM CLR 11/07 A3018 RMK AO2 T01080068
KORG 120855Z AUTO 29003KT 10SM CLR 11/07 A3017 RMK AO2 T01070073
KORG 120835Z AUTO 27004KT 10SM CLR 11/08 A3016 RMK AO2 T01100075
KORG 120815Z AUTO 25004KT 10SM CLR 11/08 A3016 RMK AO2 T01100075
KORG 120755Z AUTO 26004KT 10SM CLR 11/08 A3016 RMK AO2 T01130075
KORG 120735Z AUTO 25004KT 10SM CLR 12/08 A3016 RMK AO2 T01150076
KORG 120715Z AUTO 25004KT 10SM CLR 12/08 A3016 RMK AO2 T01160077
KORG 120655Z AUTO 25005KT 10SM CLR 12/08 A3016 RMK AO2 T01150080
KORG 120635Z AUTO 24006KT 10SM CLR 12/08 A3016 RMK AO2 T01160082
KORG 120615Z AUTO 25004KT 10SM CLR 11/08 A3016 RMK AO2 T01130082
KORG 120555Z AUTO 25004KT 10SM CLR 12/08 A3016 RMK AO2 T01210082 10148 20115 402330007
KORG 120535Z AUTO 25004KT 10SM CLR 12/08 A3016 RMK AO2 T01220083
KORG 120515Z AUTO 26004KT 10SM CLR 13/09 A3017 RMK AO2 T01250086
KORG 120455Z AUTO 25005KT 10SM CLR 13/09 A3018 RMK AO2 T01250091
KORG 120435Z AUTO 24005KT 10SM CLR 13/10 A3018 RMK AO2 T01250095
KORG 120415Z AUTO 24005KT 10SM CLR 13/10 A3019 RMK AO2 T01270096
KORG 120355Z AUTO 25003KT 10SM CLR 13/10 A3019 RMK AO2 T01300100
KORG 120335Z AUTO 25003KT 10SM CLR 13/10 A3019 RMK AO2 T01310100
KORG 120315Z AUTO 25003KT 10SM CLR 13/10 A3020 RMK AO2 T01330097
KORG 120255Z AUTO 24004KT 10SM CLR 13/09 A3020 RMK AO2 T01290093
KORG 120235Z AUTO 24003KT 10SM CLR 12/09 A3020 RMK AO2 T01150087
KORG 120215Z AUTO 24003KT 10SM CLR 12/09 A3020 RMK AO2 T01240089
KORG 120155Z AUTO 24004KT 10SM CLR 12/09 A3019 RMK AO2 T01240091
KORG 120135Z AUTO 23005KT 10SM CLR 13/09 A3019 RMK AO2 T01250091
KORG 120115Z AUTO 22006KT 10SM CLR 13/10 A3019 RMK AO2 T01270095
KORG 120055Z AUTO 23004KT 10SM CLR 13/10 A3019 RMK AO2 T01330097
KORG 120035Z AUTO 23006KT 10SM CLR 14/10 A3018 RMK AO2 T01350096
KORG 120015Z AUTO 23007KT 10SM CLR 15/11 A3018 RMK AO2 T01460105
KORG 112355Z AUTO 23006KT 10SM CLR 14/11 A3018 RMK AO2 T01400105 10233 20139
KORG 112335Z AUTO 21003KT 10SM CLR 15/11 A3017 RMK AO2 T01490111
KORG 112315Z AUTO 20004KT 10SM CLR 16/11 A3017 RMK AO2 T01550113
KORG 112255Z AUTO 20003KT 10SM CLR 18/12 A3017 RMK AO2 T01770115
KORG 112235Z AUTO 19005KT 10SM CLR 19/11 A3017 RMK AO2 T01940106
KORG 112215Z AUTO 19004KT 7SM CLR 20/10 A3017 RMK AO2 T02000104
KORG 112155Z AUTO 18005KT 10SM CLR 21/09 A3017 RMK AO2 T02100094
KORG 112135Z AUTO 25004KT 10SM CLR 23/02 A3018 RMK AO2 T02280021